Terminal Aerodrome Forecast
Issued by NWS

Home | Current Version | Previous Version | Text Only | Print | Product List | Glossary On
Versions: 1 2 3 4 5 6 7 8 9 10 11 12 13 14 15 16 17 18 19 20 21 22 23 24 25 26 27 28 29 30 31 32
000
FTUS45 KSLC 212115 AAA
TAFOGD
TAF AMD
KOGD 212115Z 2121/2218 26007KT P6SM -RA SCT025 OVC040
      TEMPO 2121/2122 2SM +RA OVC025
     FM212300 18007KT P6SM VCSH SCT050 BKN080
     FM221100 16008KT P6SM VCSH OVC070=

USA.gov is the U.S. government's official web portal to all federal, state and local government web resources and services.